Time;durP1;ratioP1;P1;durP2;ratioP2;P2;SDS_P1;SDS_P2;PMS_P1;PMS_P2;Temp;Humidity;BMP_temperature;BMP_pressure;BME280_temperature;BME280_humidity;BME280_pressure;Samples;Min_cycle;Max_cycle;Signal;HPM_P1;HPM_P2
2022/02/18 00:01:40;;;;;;;6.37;2.12;;;;;;;5.83;59.00;99237.63;1984766;89;29349;-63
2022/02/18 00:04:54;;;;;;;10.40;1.90;;;;;;;5.83;59.10;99254.91;1975949;89;27943;-62
2022/02/18 00:08:05;;;;;;;10.03;1.37;;;;;;;5.83;58.44;99242.95;1975872;89;28019;-62
2022/02/18 00:11:10;;;;;;;8.70;1.85;;;;;;;5.83;58.81;99253.09;1976279;89;30886;-70
2022/02/18 00:14:13;;;;;;;6.25;1.62;;;;;;;5.84;58.91;99256.16;1979026;89;32998;-66
2022/02/18 00:17:15;;;;;;;11.93;1.95;;;;;;;5.84;58.70;99268.59;1978986;89;29343;-67
2022/02/18 00:20:17;;;;;;;7.85;2.02;;;;;;;5.83;58.98;99271.70;1979065;89;27584;-63
2022/02/18 00:23:21;;;;;;;8.95;2.05;;;;;;;5.83;58.73;99272.19;1976189;89;28428;-64
2022/02/18 00:26:26;;;;;;;6.60;1.30;;;;;;;5.83;58.84;99276.17;1976445;89;31212;-66
2022/02/18 00:29:31;;;;;;;4.72;1.40;;;;;;;5.82;58.54;99279.28;1978902;89;33607;-63
2022/02/18 00:32:40;;;;;;;4.53;1.67;;;;;;;5.82;58.66;99281.94;1976377;89;29339;-62
2022/02/18 00:35:57;;;;;;;7.35;1.70;;;;;;;5.83;58.49;99295.62;1970132;89;28015;-63
2022/02/18 00:39:12;;;;;;;6.25;1.55;;;;;;;5.85;58.57;99290.25;1967784;89;28020;-62
2022/02/18 00:42:17;;;;;;;4.10;1.67;;;;;;;5.87;58.49;99288.39;1967996;90;31124;-62
2022/02/18 00:45:22;;;;;;;5.42;1.55;;;;;;;5.88;58.47;99300.72;1968181;89;32980;-62
2022/02/18 00:48:31;;;;;;;7.45;1.67;;;;;;;5.89;58.39;99297.13;1967986;89;29386;-64
2022/02/18 00:51:42;;;;;;;7.22;1.77;;;;;;;5.89;58.28;99311.30;1967859;90;27953;-61
2022/02/18 00:54:51;;;;;;;6.95;1.32;;;;;;;5.90;58.21;99311.70;1967935;90;28719;-61
2022/02/18 00:57:55;;;;;;;7.47;1.70;;;;;;;5.91;58.38;99321.39;1968343;90;31053;-62
2022/02/18 01:01:03;;;;;;;6.53;1.02;;;;;;;5.91;57.95;99321.39;1968496;90;32983;-62
2022/02/18 01:04:07;;;;;;;8.85;1.52;;;;;;;5.92;58.30;99338.20;1963771;88;28979;-62
2022/02/18 01:07:12;;;;;;;6.87;1.85;;;;;;;5.93;58.27;99329.29;1962492;90;27720;-62
2022/02/18 01:10:16;;;;;;;7.20;1.80;;;;;;;5.74;58.16;99311.52;1962935;90;28671;-62
2022/02/18 01:13:22;;;;;;;5.60;1.30;;;;;;;5.74;58.16;99311.52;1962132;90;35537;-62
2022/02/18 01:16:29;;;;;;;10.78;1.50;;;;;;;5.78;58.00;99330.87;1962237;90;33069;-63
2022/02/18 01:19:33;;;;;;;4.85;1.60;;;;;;;5.70;58.15;99342.30;1962234;90;29195;-63
2022/02/18 01:22:40;;;;;;;4.60;1.73;;;;;;;5.61;58.12;99339.59;1962423;90;27881;-62
2022/02/18 01:25:46;;;;;;;5.45;1.80;;;;;;;5.52;58.28;99342.19;1962272;90;28729;-63
2022/02/18 01:28:51;;;;;;;11.05;1.95;;;;;;;5.42;58.32;99346.20;1962116;90;31052;-64
2022/02/18 01:31:53;;;;;;;9.68;2.10;;;;;;;5.32;58.35;99353.70;1963740;90;33056;-65
2022/02/18 01:35:04;;;;;;;4.55;1.55;;;;;;;5.23;58.51;99349.64;1962303;90;29328;-63
2022/02/18 01:38:12;;;;;;;7.42;1.50;;;;;;;5.13;58.63;99339.88;1962356;90;28020;-62
2022/02/18 01:41:16;;;;;;;10.68;1.85;;;;;;;5.05;58.78;99353.93;1962170;90;28677;-62
2022/02/18 01:44:47;;;;;;;11.18;1.87;;;;;;;4.98;58.85;99355.98;1962250;90;31032;-65
2022/02/18 01:48:00;;;;;;;8.75;1.77;;;;;;;4.90;58.96;99366.07;1961747;90;29849;-63
2022/02/18 01:51:12;;;;;;;8.00;1.45;;;;;;;4.81;59.08;99357.14;1961971;90;29778;-63
2022/02/18 01:54:24;;;;;;;6.87;1.87;;;;;;;4.74;59.20;99365.82;1961982;90;27952;-62
2022/02/18 01:57:32;;;;;;;7.60;2.05;;;;;;;4.68;59.29;99374.90;1961946;90;28645;-64
2022/02/18 02:00:34;;;;;;;9.73;2.30;;;;;;;4.62;59.35;99371.63;1965031;90;31040;-63
2022/02/18 02:03:43;;;;;;;9.78;2.10;;;;;;;4.57;59.38;99371.83;1970933;89;33021;-63
2022/02/18 02:06:48;;;;;;;8.20;1.70;;;;;;;4.53;59.46;99379.49;1981457;89;29387;-62
2022/02/18 02:09:53;;;;;;;8.95;2.27;;;;;;;4.49;59.57;99380.09;1981814;89;27906;-62
2022/02/18 02:12:58;;;;;;;7.05;2.35;;;;;;;4.45;59.62;99378.47;1981946;89;28667;-63
2022/02/18 02:16:03;;;;;;;5.37;1.55;;;;;;;4.41;59.59;99385.70;1982017;89;31041;-62
2022/02/18 02:19:11;;;;;;;7.65;1.87;;;;;;;4.38;59.64;99387.61;1981889;89;32973;-63
2022/02/18 02:22:27;;;;;;;5.12;1.82;;;;;;;4.33;59.77;99388.24;1981758;89;29333;-63
2022/02/18 02:25:43;;;;;;;8.10;1.80;;;;;;;4.30;59.81;99398.95;1981541;89;27926;-62
2022/02/18 02:28:52;;;;;;;5.60;1.98;;;;;;;4.25;59.85;99398.66;1981662;89;28770;-63
2022/02/18 02:32:00;;;;;;;15.25;2.10;;;;;;;4.23;59.95;99397.86;1984401;89;31212;-63
2022/02/18 02:35:09;;;;;;;5.22;1.55;;;;;;;4.21;60.08;99398.84;1984437;89;33109;-63
2022/02/18 02:38:19;;;;;;;5.62;1.67;;;;;;;4.20;60.27;99411.25;1981517;89;27987;-63
2022/02/18 02:41:23;;;;;;;7.12;1.90;;;;;;;4.18;60.33;99407.79;1981860;89;27880;-62
2022/02/18 02:44:28;;;;;;;5.65;1.90;;;;;;;4.16;60.51;99403.00;1981882;89;28652;-62
2022/02/18 02:47:38;;;;;;;11.35;2.30;;;;;;;4.14;60.60;99401.34;1981578;89;31178;-62
2022/02/18 02:50:47;;;;;;;8.05;2.22;;;;;;;4.12;60.67;99415.11;1981337;89;34285;-62
2022/02/18 02:53:53;;;;;;;7.25;1.67;;;;;;;4.09;60.71;99407.67;1981720;89;30410;-62
2022/02/18 02:57:01;;;;;;;6.37;2.42;;;;;;;4.09;60.77;99421.37;1981829;89;27896;-62
2022/02/18 03:00:16;;;;;;;6.97;2.10;;;;;;;4.07;60.77;99416.14;1981732;89;28683;-63
2022/02/18 03:03:26;;;;;;;5.45;1.82;;;;;;;4.04;60.77;99422.88;1978550;89;27947;-63
2022/02/18 03:06:31;;;;;;;8.78;2.00;;;;;;;4.04;60.92;99432.62;1969482;90;33155;-63
2022/02/18 03:09:36;;;;;;;7.12;1.77;;;;;;;4.03;60.97;99426.92;1969833;90;29348;-62
2022/02/18 03:12:41;;;;;;;6.00;1.92;;;;;;;4.01;60.90;99426.95;1969692;90;27964;-62
2022/02/18 03:15:46;;;;;;;8.33;2.12;;;;;;;3.99;61.00;99442.05;1969948;90;28665;-62
2022/02/18 03:18:54;;;;;;;9.83;1.65;;;;;;;3.94;60.99;99442.70;1969915;90;30973;-62
2022/02/18 03:22:00;;;;;;;5.47;1.55;;;;;;;3.93;60.98;99440.96;1969797;90;32971;-63
2022/02/18 03:25:09;;;;;;;7.17;2.27;;;;;;;3.92;60.96;99441.88;1970034;90;29316;-63
2022/02/18 03:28:16;;;;;;;5.30;2.08;;;;;;;3.90;61.06;99456.97;1969577;90;27927;-62
2022/02/18 03:31:24;;;;;;;9.43;2.22;;;;;;;3.86;61.04;99457.55;1969473;90;30033;-62
2022/02/18 03:34:28;;;;;;;7.90;2.08;;;;;;;3.84;61.14;99457.17;1969840;90;31044;-62
2022/02/18 03:37:31;;;;;;;9.27;2.37;;;;;;;3.82;61.17;99463.87;1972711;90;32986;-62
2022/02/18 03:40:37;;;;;;;3.40;1.90;;;;;;;3.81;61.24;99467.43;1969747;90;29309;-62
2022/02/18 03:43:47;;;;;;;9.93;2.20;;;;;;;3.79;61.28;99475.45;1969872;90;27765;-62
2022/02/18 03:46:56;;;;;;;7.03;2.45;;;;;;;3.80;61.35;99482.92;1969445;90;28540;-62
2022/02/18 03:50:01;;;;;;;5.55;1.98;;;;;;;3.77;61.36;99481.70;1969726;90;31027;-63
2022/02/18 03:53:12;;;;;;;10.63;2.30;;;;;;;3.76;61.46;99496.73;1969932;90;35495;-62
2022/02/18 03:56:22;;;;;;;6.55;2.15;;;;;;;3.72;61.56;99489.81;1969513;90;27953;-63
2022/02/18 03:59:32;;;;;;;10.45;2.50;;;;;;;3.69;61.63;99499.66;1969850;90;27795;-62
2022/02/18 04:02:37;;;;;;;7.00;2.25;;;;;;;3.66;61.68;99500.61;1969719;90;28524;-62
2022/02/18 04:05:39;;;;;;;;;;;;;;;3.64;61.73;99509.09;1985076;89;32127;-63
2022/02/18 04:08:50;;;;;;;5.65;1.72;;;;;;;3.62;61.74;99509.12;1981178;89;30577;-63
2022/02/18 04:12:00;;;;;;;6.20;1.92;;;;;;;3.59;61.78;99501.75;1981450;89;28014;-63
2022/02/18 04:15:03;;;;;;;6.78;2.67;;;;;;;3.57;61.84;99509.73;1984344;89;27798;-63
2022/02/18 04:18:06;;;;;;;2.98;1.72;;;;;;;3.55;61.88;99512.03;1984167;89;28676;-64
2022/02/18 04:21:09;;;;;;;6.65;2.33;;;;;;;3.52;61.92;99515.66;1983854;89;31120;-62
2022/02/18 04:24:15;;;;;;;14.95;2.40;;;;;;;3.50;61.95;99520.13;1984109;89;32978;-63
2022/02/18 04:27:22;;;;;;;5.15;1.57;;;;;;;3.47;62.02;99520.23;1984419;89;29321;-65
2022/02/18 04:30:30;;;;;;;4.37;1.65;;;;;;;3.52;62.16;99530.22;1981665;89;27711;-63
2022/02/18 04:33:39;;;;;;;8.28;2.17;;;;;;;3.55;62.21;99530.13;1981727;89;28662;-63
2022/02/18 04:36:46;;;;;;;17.35;2.22;;;;;;;3.56;62.29;99533.16;1981608;89;31100;-63
2022/02/18 04:39:56;;;;;;;9.90;2.00;;;;;;;3.55;62.25;99532.77;1981353;89;33044;-63
2022/02/18 04:43:04;;;;;;;9.45;2.08;;;;;;;3.58;62.21;99545.04;1981451;89;29397;-63
2022/02/18 04:46:08;;;;;;;6.78;2.08;;;;;;;3.58;62.21;99541.06;1981753;89;27990;-63
2022/02/18 04:49:12;;;;;;;7.90;1.60;;;;;;;3.58;62.22;99542.39;1981905;89;28675;-62
2022/02/18 04:52:17;;;;;;;6.10;1.75;;;;;;;3.56;62.18;99533.16;1981745;89;31138;-67
2022/02/18 04:55:20;;;;;;;9.90;2.27;;;;;;;3.55;62.23;99541.16;1936087;89;34146;-66
2022/02/18 04:58:32;;;;;;;8.20;2.20;;;;;;;3.54;62.21;99550.02;1981176;89;29470;-67
2022/02/18 05:01:34;;;;;;;7.45;2.12;;;;;;;3.51;62.29;99543.05;1984397;89;27860;-68
2022/02/18 05:04:40;;;;;;;10.60;2.37;;;;;;;3.48;62.34;99555.06;1978290;89;28672;-64
2022/02/18 05:07:50;;;;;;;10.58;1.82;;;;;;;3.46;62.35;99562.19;1969704;90;31091;-63
2022/02/18 05:10:59;;;;;;;12.23;2.10;;;;;;;3.41;62.41;99558.37;1969330;90;28763;-63
2022/02/18 05:14:13;;;;;;;9.48;2.77;;;;;;;3.36;62.41;99566.91;1969398;90;27984;-62
2022/02/18 05:17:29;;;;;;;3.58;1.10;;;;;;;3.33;62.48;99559.06;1969767;90;27998;-62
2022/02/18 05:20:34;;;;;;;10.32;2.02;;;;;;;3.32;62.56;99563.94;1969422;90;28708;-63
2022/02/18 05:23:43;;;;;;;12.98;2.00;;;;;;;3.29;62.55;99565.39;2017185;87;31026;-62
2022/02/18 05:26:53;;;;;;;4.70;1.90;;;;;;;3.25;62.58;99567.24;2016896;88;32967;-63
2022/02/18 05:29:58;;;;;;;6.37;2.02;;;;;;;3.24;62.64;99575.25;2016831;88;29341;-69
2022/02/18 05:33:00;;;;;;;9.88;2.37;;;;;;;3.21;62.62;99574.02;2019768;88;27887;-70
2022/02/18 05:36:04;;;;;;;9.45;2.10;;;;;;;3.18;62.71;99574.98;2019650;88;28710;-63
2022/02/18 05:39:06;;;;;;;11.50;2.58;;;;;;;3.16;62.77;99576.80;2019414;88;31100;-65
2022/02/18 05:42:08;;;;;;;8.30;2.30;;;;;;;3.13;62.80;99580.42;2019683;88;32978;-71
2022/02/18 05:45:12;;;;;;;11.53;2.50;;;;;;;3.11;62.79;99586.66;2019645;88;29367;-65
2022/02/18 05:48:14;;;;;;;8.83;2.30;;;;;;;3.09;62.88;99602.59;2019839;88;27628;-63
2022/02/18 05:51:24;;;;;;;12.93;2.62;;;;;;;3.04;62.83;99598.77;2015257;88;28657;-62
2022/02/18 05:54:27;;;;;;;8.33;2.22;;;;;;;3.03;62.94;99605.41;2015282;88;31026;-69
2022/02/18 05:57:38;;;;;;;7.20;2.37;;;;;;;3.01;63.01;99597.98;2015365;88;32983;-62
2022/02/18 06:00:46;;;;;;;10.18;2.20;;;;;;;3.00;63.00;99608.14;2016113;88;30666;-62
2022/02/18 06:03:56;;;;;;;6.25;2.05;;;;;;;2.99;63.04;99600.68;2016044;88;28175;-62
2022/02/18 06:07:04;;;;;;;14.15;2.10;;;;;;;2.99;63.09;99597.15;2010189;88;29771;-61
2022/02/18 06:10:10;;;;;;;6.08;2.02;;;;;;;3.00;63.11;99601.09;2010636;88;31055;-63
2022/02/18 06:13:21;;;;;;;7.87;2.08;;;;;;;3.03;63.14;99606.30;2010627;87;32991;-63
2022/02/18 06:16:27;;;;;;;10.03;2.08;;;;;;;3.08;63.22;99606.59;2010021;87;29343;-62
2022/02/18 06:19:35;;;;;;;7.00;2.20;;;;;;;3.10;63.15;99610.06;2012758;88;27797;-62
2022/02/18 06:22:38;;;;;;;9.65;2.45;;;;;;;3.10;63.13;99615.36;2017543;88;28626;-63
2022/02/18 06:25:40;;;;;;;14.15;2.58;;;;;;;3.10;63.18;99608.30;2014563;88;31048;-63
2022/02/18 06:28:43;;;;;;;7.72;1.95;;;;;;;3.12;63.17;99611.77;2014564;88;32975;-63
2022/02/18 06:31:49;;;;;;;12.60;2.67;;;;;;;3.12;63.25;99613.09;2011393;88;29725;-64
2022/02/18 06:34:54;;;;;;;8.70;2.15;;;;;;;3.14;63.27;99619.22;2014751;88;27800;-63
2022/02/18 06:37:56;;;;;;;10.10;2.15;;;;;;;3.19;63.29;99625.21;2014738;88;29371;-63
2022/02/18 06:40:58;;;;;;;10.08;2.95;;;;;;;3.23;63.38;99622.00;2014571;88;31083;-63
2022/02/18 06:44:00;;;;;;;12.82;2.50;;;;;;;3.30;63.43;99634.16;2017735;87;33036;-63
2022/02/18 06:47:04;;;;;;;11.53;2.58;;;;;;;3.34;63.38;99631.83;1984704;89;30230;-63
2022/02/18 06:50:08;;;;;;;7.05;1.77;;;;;;;3.43;63.34;99635.98;1984922;89;27781;-67
2022/02/18 06:53:17;;;;;;;16.32;4.00;;;;;;;3.56;63.46;99638.23;1982036;89;28677;-62
2022/02/18 06:56:29;;;;;;;12.03;2.27;;;;;;;3.71;63.40;99634.24;1981796;89;31684;-63
2022/02/18 06:59:37;;;;;;;9.95;2.72;;;;;;;3.89;63.30;99636.73;1981687;89;33403;-62
2022/02/18 07:02:43;;;;;;;12.98;2.77;;;;;;;4.09;63.17;99642.69;1982120;89;29350;-62
2022/02/18 07:05:49;;;;;;;7.87;3.10;;;;;;;4.30;62.96;99636.27;1983082;88;28348;-65
2022/02/18 07:08:53;;;;;;;7.00;2.05;;;;;;;4.51;62.88;99642.15;1984306;89;28693;-70
2022/02/18 07:11:58;;;;;;;13.62;2.05;;;;;;;4.77;62.76;99637.68;2005986;88;31046;-69
2022/02/18 07:15:03;;;;;;;12.35;2.33;;;;;;;5.11;62.63;99631.59;2017195;88;35554;-70
2022/02/18 07:18:11;;;;;;;7.67;2.77;;;;;;;5.46;62.26;99633.35;2016883;88;29330;-65
2022/02/18 07:21:14;;;;;;;6.95;2.65;;;;;;;5.72;61.88;99643.39;2019572;88;27857;-63
2022/02/18 07:24:16;;;;;;;5.10;2.35;;;;;;;5.87;61.61;99634.80;2019755;88;28656;-65
2022/02/18 07:27:20;;;;;;;8.88;2.22;;;;;;;5.98;61.39;99635.69;1999286;88;31098;-68
2022/02/18 07:30:23;;;;;;;9.05;2.80;;;;;;;6.09;61.09;99629.95;2019738;87;32976;-65
2022/02/18 07:33:29;;;;;;;7.85;3.33;;;;;;;6.23;61.05;99634.67;2007602;88;29317;-71
2022/02/18 07:36:42;;;;;;;10.10;2.70;;;;;;;6.37;61.08;99637.60;2017188;88;27841;-70
2022/02/18 07:39:47;;;;;;;8.83;2.70;;;;;;;6.46;60.70;99635.02;2016833;88;28399;-69
2022/02/18 07:42:52;;;;;;;9.80;2.77;;;;;;;6.86;60.90;99643.51;2017140;88;31044;-69
2022/02/18 07:45:58;;;;;;;9.03;2.85;;;;;;;7.13;60.60;99635.58;2016950;88;32984;-70
2022/02/18 07:49:04;;;;;;;9.10;3.12;;;;;;;7.18;60.31;99636.72;2017069;88;29535;-62
2022/02/18 07:52:15;;;;;;;8.88;2.58;;;;;;;7.54;60.26;99633.72;2017134;88;27800;-62
2022/02/18 07:55:23;;;;;;;8.00;2.15;;;;;;;7.99;59.92;99635.55;2017054;88;28824;-63
2022/02/18 07:58:29;;;;;;;7.53;2.47;;;;;;;8.29;59.42;99628.27;2016911;88;31040;-63
2022/02/18 08:01:33;;;;;;;;;;;;;;;8.71;59.04;99629.67;2019692;88;32983;-65
2022/02/18 08:04:35;;;;;;;8.78;2.30;;;;;;;9.10;58.93;99623.63;2019274;86;29348;-64
2022/02/18 08:07:38;;;;;;;8.35;2.10;;;;;;;9.46;58.21;99629.69;1984818;88;27734;-65
2022/02/18 08:10:43;;;;;;;7.15;2.60;;;;;;;9.75;57.88;99617.36;1984749;88;28729;-63
2022/02/18 08:13:48;;;;;;;9.13;2.52;;;;;;;10.06;57.67;99622.72;1980751;89;31108;-62
2022/02/18 08:16:50;;;;;;;10.03;2.27;;;;;;;10.42;57.30;99616.17;1985058;88;32966;-64
2022/02/18 08:19:57;;;;;;;9.90;2.40;;;;;;;10.70;56.51;99613.16;1985052;89;29335;-64
2022/02/18 08:22:58;;;;;;;10.55;3.80;;;;;;;10.98;56.10;99623.52;1981089;88;27990;-63
2022/02/18 08:26:01;;;;;;;6.35;2.50;;;;;;;11.09;55.74;99629.06;1985195;89;28643;-66
2022/02/18 08:29:04;;;;;;;11.95;3.17;;;;;;;11.17;55.35;99615.17;1984733;89;31185;-64
2022/02/18 08:32:07;;;;;;;9.98;3.20;;;;;;;11.25;54.84;99614.23;1985008;88;32949;-63
2022/02/18 08:35:10;;;;;;;12.82;3.25;;;;;;;11.28;54.59;99619.86;1985034;88;29326;-64
2022/02/18 08:38:20;;;;;;;7.72;3.00;;;;;;;11.23;54.15;99616.14;1981332;88;27716;-62
2022/02/18 08:41:27;;;;;;;16.35;3.22;;;;;;;11.13;54.29;99609.62;1980847;88;29971;-62
2022/02/18 08:44:31;;;;;;;14.05;5.17;;;;;;;11.04;53.64;99616.42;1985277;89;31031;-63
2022/02/18 08:47:42;;;;;;;10.85;3.40;;;;;;;10.87;54.16;99609.45;1984740;89;33029;-65
2022/02/18 08:50:51;;;;;;;10.80;2.52;;;;;;;10.74;54.07;99616.03;1981279;89;29704;-62
2022/02/18 08:53:55;;;;;;;8.30;2.55;;;;;;;10.58;54.13;99614.79;1981754;89;27994;-62
2022/02/18 08:57:01;;;;;;;8.50;4.05;;;;;;;10.42;53.90;99613.04;1981917;89;28726;-63
2022/02/18 09:00:09;;;;;;;13.85;3.40;;;;;;;10.29;54.11;99627.59;1985075;89;31033;-62
2022/02/18 09:03:12;;;;;;;7.08;2.65;;;;;;;10.17;53.92;99624.31;1984800;88;33028;-64
2022/02/18 09:06:16;;;;;;;9.90;2.70;;;;;;;10.08;53.81;99632.86;1997505;87;29407;-62
2022/02/18 09:09:23;;;;;;;9.55;2.90;;;;;;;10.00;54.24;99625.28;2013957;87;27937;-67
2022/02/18 09:12:27;;;;;;;11.12;3.37;;;;;;;9.99;54.29;99623.10;2017031;87;28674;-62
2022/02/18 09:15:29;;;;;;;15.68;3.40;;;;;;;10.00;54.39;99622.15;2017119;87;31031;-62
2022/02/18 09:18:32;;;;;;;11.70;3.42;;;;;;;9.98;54.28;99617.36;2007624;88;33068;-62
2022/02/18 09:21:36;;;;;;;12.63;3.70;;;;;;;9.98;54.08;99611.13;2017227;87;29667;-62
2022/02/18 09:24:42;;;;;;;12.23;3.52;;;;;;;9.99;54.15;99616.87;2014582;87;27988;-63
2022/02/18 09:27:46;;;;;;;10.93;3.55;;;;;;;10.01;54.15;99613.63;2017325;87;28512;-62
2022/02/18 09:30:51;;;;;;;13.18;3.47;;;;;;;10.06;54.29;99602.66;2017220;88;31045;-64
2022/02/18 09:33:57;;;;;;;12.50;3.40;;;;;;;10.13;54.15;99604.87;2013774;87;29753;-63
2022/02/18 09:37:00;;;;;;;10.98;2.75;;;;;;;10.17;53.97;99602.41;2017476;87;29313;-64
2022/02/18 09:40:03;;;;;;;13.03;2.85;;;;;;;10.23;53.86;99602.52;2020359;87;27636;-63
2022/02/18 09:43:10;;;;;;;9.78;2.52;;;;;;;10.29;53.87;99603.50;2017040;87;28691;-66
2022/02/18 09:46:21;;;;;;;10.28;3.25;;;;;;;10.32;53.87;99597.09;2014413;87;28038;-63
2022/02/18 09:49:26;;;;;;;7.50;2.95;;;;;;;10.39;53.85;99593.13;2014529;87;32793;-63
2022/02/18 09:52:36;;;;;;;;;;;;;;;10.44;53.83;99591.51;2017065;87;29329;-62
2022/02/18 09:55:40;;;;;;;12.70;3.20;;;;;;;10.49;53.30;99586.25;2014699;87;27931;-62
2022/02/18 09:58:49;;;;;;;12.30;3.33;;;;;;;10.53;53.50;99585.58;2013850;87;28649;-63
2022/02/18 10:01:52;;;;;;;10.35;3.02;;;;;;;10.61;53.70;99580.63;2014390;88;31029;-62
2022/02/18 10:04:58;;;;;;;16.82;4.20;;;;;;;10.74;53.60;99579.87;2014479;87;33056;-63
2022/02/18 10:08:18;;;;;;;8.18;3.08;;;;;;;10.87;53.42;99563.89;2013524;87;28022;-63
2022/02/18 10:11:23;;;;;;;15.38;3.02;;;;;;;10.91;53.21;99574.31;2014023;87;27886;-64
2022/02/18 10:14:25;;;;;;;10.48;3.02;;;;;;;10.87;53.07;99571.94;2017266;87;28659;-65
2022/02/18 10:17:45;;;;;;;9.08;2.60;;;;;;;10.84;53.03;99565.42;2016214;87;31059;-63
2022/02/18 10:20:54;;;;;;;12.43;3.60;;;;;;;10.88;53.24;99562.45;2016475;88;33207;-64
2022/02/18 10:24:15;;;;;;;9.20;2.30;;;;;;;10.96;53.07;99559.77;2013148;88;29339;-63
2022/02/18 10:27:26;;;;;;;8.65;2.27;;;;;;;11.05;52.93;99553.35;2013099;87;27843;-63
2022/02/18 10:30:34;;;;;;;11.80;2.92;;;;;;;11.26;53.58;99556.93;2009419;88;28658;-64
2022/02/18 10:33:39;;;;;;;12.25;3.37;;;;;;;11.46;53.37;99542.25;2014582;87;31036;-63
2022/02/18 10:36:45;;;;;;;13.60;4.45;;;;;;;11.63;52.96;99547.83;2014545;88;33116;-64
2022/02/18 10:39:50;;;;;;;11.15;2.85;;;;;;;11.72;52.41;99558.42;2014571;88;29326;-63
2022/02/18 10:43:09;;;;;;;8.18;2.47;;;;;;;11.78;52.60;99540.59;2013782;87;28211;-63
2022/02/18 10:46:14;;;;;;;14.20;2.60;;;;;;;11.89;51.73;99534.97;2012770;88;28498;-64
2022/02/18 10:49:26;;;;;;;11.35;4.55;;;;;;;11.93;51.84;99531.13;2017145;87;31015;-65
2022/02/18 10:52:28;;;;;;;6.72;2.10;;;;;;;11.94;51.73;99528.32;2017012;88;32987;-64
2022/02/18 10:55:30;;;;;;;14.65;3.65;;;;;;;12.03;51.92;99530.05;2020122;87;29043;-63
2022/02/18 10:58:39;;;;;;;9.78;3.10;;;;;;;12.08;51.81;99518.02;2017161;88;27814;-63
2022/02/18 11:01:46;;;;;;;20.72;3.25;;;;;;;12.15;51.66;99513.97;2014121;87;28623;-64
2022/02/18 11:04:48;;;;;;;12.82;2.87;;;;;;;12.15;51.20;99502.34;2017138;87;31089;-64
2022/02/18 11:07:51;;;;;;;13.55;2.77;;;;;;;12.16;51.30;99509.44;2018632;87;32968;-63
2022/02/18 11:10:55;;;;;;;7.87;2.60;;;;;;;12.13;51.13;99498.91;2019620;87;29362;-62
2022/02/18 11:14:08;;;;;;;8.78;2.92;;;;;;;12.09;50.63;99487.53;2016494;88;27987;-64
2022/02/18 11:17:26;;;;;;;12.93;2.35;;;;;;;12.04;50.48;99465.50;2016459;88;28784;-63
2022/02/18 11:20:32;;;;;;;8.33;2.98;;;;;;;12.03;50.55;99471.83;2016138;88;27997;-62
2022/02/18 11:23:42;;;;;;;10.65;2.90;;;;;;;12.09;50.78;99473.23;2017788;87;33090;-63
2022/02/18 11:26:46;;;;;;;12.60;2.75;;;;;;;12.18;50.63;99467.70;2016359;88;29372;-64
2022/02/18 11:29:53;;;;;;;12.60;3.40;;;;;;;12.29;50.43;99459.77;2020103;87;27857;-62
2022/02/18 11:33:15;;;;;;;13.00;3.42;;;;;;;12.38;50.33;99451.55;2016778;87;28650;-61
2022/02/18 11:37:04;;;;;;;10.72;3.55;;;;;;;12.38;50.08;99449.70;1921030;92;31070;-61
2022/02/18 11:40:46;;;;;;;13.10;3.30;;;;;;;12.37;49.86;99446.64;1880081;94;33420;-61
2022/02/18 11:43:57;;;;;;;10.48;2.85;;;;;;;12.36;49.45;99438.21;1832537;96;28127;-60
2022/02/18 11:47:24;;;;;;;10.95;2.50;;;;;;;12.28;49.36;99426.67;1832467;96;28022;-61
2022/02/18 11:50:31;;;;;;;10.30;2.83;;;;;;;12.23;48.94;99429.31;1832429;96;28138;-61
2022/02/18 11:53:56;;;;;;;13.30;3.13;;;;;;;12.18;49.01;99426.95;1832971;96;31051;-61
2022/02/18 11:57:05;;;;;;;12.43;3.30;;;;;;;12.14;49.01;99416.05;1832789;96;32990;-61
2022/02/18 12:00:15;;;;;;;7.80;2.85;;;;;;;12.06;48.77;99405.85;1832713;96;29422;-60
2022/02/18 12:03:33;;;;;;;8.95;3.17;;;;;;;11.99;48.25;99404.58;1832946;96;28084;-61
2022/02/18 12:06:46;;;;;;;9.10;3.12;;;;;;;11.94;48.42;99394.11;1832057;96;27917;-61
2022/02/18 12:10:01;;;;;;;9.85;3.90;;;;;;;11.97;48.26;99400.61;1800695;98;31132;-61
2022/02/18 12:13:08;;;;;;;10.45;3.40;;;;;;;12.04;48.35;99391.67;1838756;90;33159;-63
2022/02/18 12:16:13;;;;;;;10.35;3.35;;;;;;;12.10;48.13;99386.35;1977659;88;29389;-62
2022/02/18 12:19:23;;;;;;;9.93;2.87;;;;;;;12.14;47.71;99383.83;1957477;90;27867;-62
2022/02/18 12:22:42;;;;;;;12.37;3.37;;;;;;;12.24;47.77;99380.88;1938219;90;28899;-66
2022/02/18 12:25:44;;;;;;;10.72;5.45;;;;;;;12.29;47.16;99376.02;2020220;87;31050;-63
2022/02/18 12:29:13;;;;;;;14.55;4.17;;;;;;;12.31;47.14;99361.16;2014121;87;28912;-63
2022/02/18 12:32:20;;;;;;;18.62;3.80;;;;;;;12.34;47.30;99357.38;2014318;87;29309;-62
2022/02/18 12:35:28;;;;;;;12.63;4.10;;;;;;;12.35;47.20;99356.41;2014541;87;27785;-62
2022/02/18 12:38:32;;;;;;;10.43;3.45;;;;;;;12.36;47.10;99362.16;1964925;90;28678;-64
2022/02/18 12:41:37;;;;;;;13.87;5.63;;;;;;;12.38;46.82;99347.64;1965121;90;31693;-62
2022/02/18 12:44:56;;;;;;;62.98;44.27;;;;;;;12.42;46.78;99338.86;1964840;90;32991;-63
2022/02/18 12:48:00;;;;;;;9.28;4.85;;;;;;;12.42;46.71;99338.86;1942522;91;29988;-62
2022/02/18 12:51:25;;;;;;;7.00;2.97;;;;;;;12.53;46.76;99324.19;1942847;91;27809;-63
2022/02/18 12:54:51;;;;;;;10.18;2.92;;;;;;;12.67;46.50;99315.58;1966263;90;28713;-62
2022/02/18 12:57:57;;;;;;;4.92;2.37;;;;;;;12.76;46.23;99306.34;1942371;91;31054;-62
2022/02/18 13:01:14;;;;;;;8.25;2.90;;;;;;;12.86;46.33;99289.05;1942324;91;32823;-62
2022/02/18 13:04:22;;;;;;;11.70;2.92;;;;;;;12.88;45.99;99284.41;1942226;91;29341;-63
2022/02/18 13:07:25;;;;;;;11.83;2.33;;;;;;;12.88;45.61;99280.38;1969850;89;28019;-66
2022/02/18 13:10:40;;;;;;;11.88;2.92;;;;;;;12.80;45.14;99269.34;1928084;92;29102;-62
2022/02/18 13:13:43;;;;;;;6.67;2.65;;;;;;;12.72;45.59;99273.11;1966145;90;31424;-64
2022/02/18 13:16:47;;;;;;;9.55;2.70;;;;;;;12.65;45.41;99269.16;1963212;90;32988;-61
2022/02/18 13:19:58;;;;;;;11.30;3.08;;;;;;;12.50;45.39;99255.90;1963511;90;29348;-63
2022/02/18 13:23:13;;;;;;;13.00;3.22;;;;;;;12.40;45.57;99255.72;1939937;91;28065;-63
2022/02/18 13:26:30;;;;;;;12.28;3.75;;;;;;;12.29;45.94;99249.80;2022040;87;29093;-68
2022/02/18 13:29:49;;;;;;;8.40;3.02;;;;;;;12.21;46.00;99236.09;2022647;87;31263;-61
2022/02/18 13:33:16;;;;;;;8.40;3.10;;;;;;;12.10;45.50;99244.06;2022273;87;33812;-63
2022/02/18 13:36:29;;;;;;;11.53;3.40;;;;;;;11.93;45.70;99230.02;2022474;87;29329;-62
2022/02/18 13:39:34;;;;;;;12.85;3.40;;;;;;;11.82;45.99;99224.58;2022642;87;27764;-61
2022/02/18 13:42:58;;;;;;;11.63;3.98;;;;;;;11.68;46.21;99213.48;2022698;87;28640;-61
2022/02/18 13:46:05;;;;;;;14.38;3.72;;;;;;;11.59;46.43;99229.75;2022604;87;31035;-62
2022/02/18 13:49:13;;;;;;;12.85;4.80;;;;;;;11.45;46.51;99220.50;2021970;87;33035;-62
2022/02/18 13:52:18;;;;;;;13.43;3.35;;;;;;;11.30;46.67;99219.77;2022538;87;29331;-62
2022/02/18 13:55:27;;;;;;;10.28;3.00;;;;;;;11.17;46.94;99211.22;2022365;87;27884;-62
2022/02/18 13:58:32;;;;;;;10.80;3.12;;;;;;;11.06;47.09;99217.36;2021443;87;28657;-62
2022/02/18 14:01:39;;;;;;;11.65;3.15;;;;;;;10.93;47.50;99205.75;2021379;87;31027;-62
2022/02/18 14:04:54;;;;;;;10.15;2.42;;;;;;;10.82;47.86;99201.15;2021066;87;33108;-61
2022/02/18 14:08:13;;;;;;;7.55;3.12;;;;;;;10.73;48.04;99196.41;2005181;87;28082;-61
2022/02/18 14:11:20;;;;;;;15.08;3.52;;;;;;;10.61;48.49;99187.38;1983725;88;27876;-63
2022/02/18 14:14:27;;;;;;;10.18;2.95;;;;;;;10.49;49.00;99176.54;1948414;91;28719;-62
2022/02/18 14:17:38;;;;;;;6.37;1.80;;;;;;;10.39;49.39;99181.28;1972149;89;31680;-63
2022/02/18 14:20:42;;;;;;;7.05;2.67;;;;;;;10.23;50.13;99176.07;1972538;90;34010;-64
2022/02/18 14:23:53;;;;;;;16.35;5.78;;;;;;;10.08;50.57;99191.31;1949232;90;28063;-61
2022/02/18 14:26:57;;;;;;;9.48;3.52;;;;;;;9.91;50.93;99180.39;1949735;90;27970;-62
2022/02/18 14:30:07;;;;;;;7.90;2.40;;;;;;;9.81;51.44;99190.33;1949899;90;28666;-63
2022/02/18 14:33:29;;;;;;;5.85;2.35;;;;;;;9.72;52.05;99189.10;1973115;90;31271;-63
2022/02/18 14:36:40;;;;;;;6.62;1.70;;;;;;;9.64;52.49;99181.19;1949731;90;34185;-62
2022/02/18 14:39:48;;;;;;;4.37;1.75;;;;;;;9.55;52.98;99183.97;1949683;90;29335;-62
2022/02/18 14:42:56;;;;;;;16.10;6.42;;;;;;;9.45;53.20;99170.82;1949741;90;27760;-60
2022/02/18 14:46:08;;;;;;;9.30;3.77;;;;;;;9.32;53.55;99164.05;1949249;91;30052;-62
2022/02/18 14:49:11;;;;;;;6.17;3.47;;;;;;;9.20;54.07;99153.18;1949713;91;31048;-61